createdAt,value
2018-12-17T00:01:15.124Z,13.57
2018-12-17T00:03:42.288Z,16.10
2018-12-17T00:06:09.697Z,14.57
2018-12-17T00:08:37.113Z,18.37
2018-12-17T00:11:04.420Z,16.80
2018-12-17T00:13:31.568Z,14.13
2018-12-17T00:15:58.772Z,16.13
2018-12-17T00:18:25.945Z,12.90
2018-12-17T00:20:53.099Z,16.10
2018-12-17T00:23:20.263Z,13.23
2018-12-17T00:25:47.475Z,14.10
2018-12-17T00:28:14.659Z,15.03
2018-12-17T00:30:41.812Z,13.43
2018-12-17T00:33:08.975Z,13.47
2018-12-17T00:35:36.176Z,15.73
2018-12-17T00:38:03.339Z,15.00
2018-12-17T00:40:31.013Z,12.60
2018-12-17T00:42:58.242Z,14.47
2018-12-17T00:45:25.412Z,14.83
2018-12-17T00:47:52.685Z,15.27
2018-12-17T00:50:19.865Z,15.17
2018-12-17T00:52:47.019Z,16.57
2018-12-17T00:55:14.185Z,15.30
2018-12-17T00:57:41.328Z,15.30
2018-12-17T01:00:09.115Z,15.23
2018-12-17T01:02:36.384Z,14.73
2018-12-17T01:05:03.671Z,14.80
2018-12-17T01:07:31.308Z,13.60
2018-12-17T01:09:58.492Z,14.73
2018-12-17T01:12:25.684Z,16.17
2018-12-17T01:14:52.857Z,16.27
2018-12-17T01:17:19.991Z,16.60
2018-12-17T01:19:47.143Z,16.00
2018-12-17T01:22:14.397Z,14.83
2018-12-17T01:24:41.543Z,13.57
2018-12-17T01:27:08.699Z,17.73
2018-12-17T01:29:35.851Z,14.17
2018-12-17T01:32:03.016Z,17.90
2018-12-17T01:34:30.168Z,17.13
2018-12-17T01:36:57.328Z,15.93
2018-12-17T01:39:24.483Z,14.00
2018-12-17T01:41:51.668Z,13.17
2018-12-17T01:44:18.812Z,13.83
2018-12-17T01:46:45.977Z,12.40
2018-12-17T01:49:13.148Z,14.47
2018-12-17T01:51:40.302Z,14.97
2018-12-17T01:54:07.456Z,18.10
2018-12-17T01:56:34.613Z,15.00
2018-12-17T01:59:01.783Z,13.77
2018-12-17T02:01:28.932Z,16.80
2018-12-17T02:03:56.097Z,15.13
2018-12-17T02:06:23.259Z,15.87
2018-12-17T02:08:50.537Z,12.57
2018-12-17T02:11:17.687Z,11.83
2018-12-17T02:13:45.041Z,15.37
2018-12-17T02:16:12.168Z,13.80
2018-12-17T02:18:39.329Z,12.90
2018-12-17T02:21:06.507Z,13.80
2018-12-17T02:23:33.667Z,12.30
2018-12-17T02:26:00.827Z,14.63
2018-12-17T02:28:28.015Z,13.90
2018-12-17T02:30:55.176Z,12.37
2018-12-17T02:33:22.331Z,14.10
2018-12-17T02:35:49.491Z,13.13
2018-12-17T02:38:16.653Z,10.53
2018-12-17T02:40:43.803Z,12.53
2018-12-17T02:43:10.944Z,13.80
2018-12-17T02:45:38.108Z,11.20
2018-12-17T02:48:05.268Z,13.30
2018-12-17T02:50:32.433Z,14.17
2018-12-17T02:52:59.592Z,13.50
2018-12-17T02:55:26.760Z,12.60
2018-12-17T02:57:53.914Z,13.70
2018-12-17T03:00:21.112Z,13.87
2018-12-17T03:02:48.286Z,14.30
2018-12-17T03:05:15.453Z,12.67
2018-12-17T03:07:42.602Z,12.57
2018-12-17T03:10:09.862Z,14.03
2018-12-17T03:12:37.015Z,13.27
2018-12-17T03:15:04.551Z,12.00
2018-12-17T03:17:31.699Z,11.67
2018-12-17T03:19:58.869Z,12.90
2018-12-17T03:22:26.030Z,12.30
2018-12-17T03:24:53.186Z,15.57
2018-12-17T03:27:20.344Z,14.03
2018-12-17T03:29:47.500Z,17.23
2018-12-17T03:32:14.770Z,11.80
2018-12-17T03:34:41.949Z,13.30
2018-12-17T03:37:09.155Z,12.80
2018-12-17T03:39:36.422Z,13.40
2018-12-17T03:42:03.683Z,14.67
2018-12-17T03:44:30.835Z,19.23
2018-12-17T03:46:58.018Z,16.97
2018-12-17T03:49:25.172Z,13.63
2018-12-17T03:51:52.328Z,13.20
2018-12-17T03:54:19.728Z,16.20
2018-12-17T03:56:46.908Z,15.50
2018-12-17T03:59:14.068Z,13.07
2018-12-17T04:01:41.238Z,14.00
2018-12-17T04:04:08.428Z,14.60
2018-12-17T04:06:35.680Z,17.70
2018-12-17T04:09:03.955Z,15.37
2018-12-17T04:11:31.123Z,13.47
2018-12-17T04:13:58.416Z,14.77
2018-12-17T04:16:25.680Z,12.33
2018-12-17T04:18:52.953Z,15.13
2018-12-17T04:21:20.973Z,20.80
2018-12-17T04:23:48.274Z,15.17
2018-12-17T04:26:15.700Z,13.57
2018-12-17T04:28:43.032Z,14.17
2018-12-17T04:31:10.324Z,19.17
2018-12-17T04:33:39.036Z,12.73
2018-12-17T04:36:06.239Z,12.53
2018-12-17T04:38:33.501Z,15.57
2018-12-17T04:43:52.855Z,15.43
2018-12-17T04:46:20.005Z,13.33
2018-12-17T04:48:47.184Z,14.90
2018-12-17T04:51:14.457Z,15.23
2018-12-17T04:53:41.672Z,15.20
2018-12-17T04:56:08.842Z,13.63
2018-12-17T04:58:35.998Z,12.07
2018-12-17T05:01:03.156Z,13.23
2018-12-17T05:03:30.328Z,14.33
2018-12-17T05:05:57.511Z,15.77
2018-12-17T05:08:24.804Z,13.90
2018-12-17T05:10:52.086Z,13.50
2018-12-17T05:13:19.261Z,14.80
2018-12-17T05:15:46.436Z,15.57
2018-12-17T05:18:13.601Z,14.83
2018-12-17T05:20:40.759Z,16.23
2018-12-17T05:23:07.915Z,16.83
2018-12-17T05:25:35.083Z,15.80
2018-12-17T05:28:02.244Z,16.47
2018-12-17T05:30:29.461Z,14.03
2018-12-17T05:32:56.754Z,13.73
2018-12-17T05:35:23.945Z,14.93
2018-12-17T05:37:51.104Z,14.17
2018-12-17T05:40:18.276Z,16.97
2018-12-17T05:42:45.467Z,15.40
2018-12-17T05:45:12.700Z,15.80
2018-12-17T05:47:39.914Z,13.30
2018-12-17T05:50:07.240Z,14.00
2018-12-17T05:52:34.422Z,17.10
2018-12-17T05:55:01.652Z,16.20
2018-12-17T05:57:28.821Z,15.27
2018-12-17T05:59:55.984Z,14.60
2018-12-17T06:02:23.182Z,14.30
2018-12-17T06:04:50.370Z,16.97
2018-12-17T06:07:17.565Z,19.20
2018-12-17T06:09:44.730Z,15.93
2018-12-17T06:12:11.892Z,14.90
2018-12-17T06:14:39.122Z,12.63
2018-12-17T06:17:06.339Z,15.90
2018-12-17T06:19:33.533Z,13.63
2018-12-17T06:22:00.753Z,14.40
2018-12-17T06:24:27.928Z,15.47
2018-12-17T06:26:55.142Z,20.70
2018-12-17T06:29:22.305Z,15.60
2018-12-17T06:31:49.537Z,13.10
2018-12-17T06:34:16.691Z,13.60
2018-12-17T06:36:43.861Z,12.90
2018-12-17T06:39:11.051Z,15.00
2018-12-17T06:41:38.317Z,19.63
2018-12-17T06:44:05.501Z,16.93
2018-12-17T06:46:32.699Z,14.80
2018-12-17T06:48:59.860Z,17.30
2018-12-17T06:51:27.252Z,14.03
2018-12-17T06:53:54.447Z,14.60
2018-12-17T06:56:21.625Z,19.87
2018-12-17T06:58:48.785Z,17.40
2018-12-17T07:01:15.965Z,17.03
2018-12-17T07:03:43.182Z,20.37
2018-12-17T07:06:10.436Z,17.43
2018-12-17T07:08:37.614Z,18.60
2018-12-17T07:11:06.176Z,21.67
2018-12-17T07:13:33.362Z,16.43
2018-12-17T07:16:00.533Z,21.13
2018-12-17T07:18:27.688Z,16.07
2018-12-17T07:20:54.852Z,21.43
2018-12-17T07:23:22.188Z,14.23
2018-12-17T07:25:49.365Z,20.47
2018-12-17T07:28:16.537Z,24.47
2018-12-17T07:30:43.713Z,20.80
2018-12-17T07:33:10.958Z,17.23
2018-12-17T07:35:38.125Z,19.43
2018-12-17T07:38:05.344Z,22.40
2018-12-17T07:40:32.504Z,20.40
2018-12-17T07:42:59.700Z,19.80
2018-12-17T07:45:26.852Z,19.50
2018-12-17T07:47:54.017Z,22.33
2018-12-17T07:50:21.289Z,23.87
2018-12-17T07:52:48.468Z,16.90
2018-12-17T07:55:15.694Z,24.80
2018-12-17T07:57:42.844Z,17.60
2018-12-17T08:00:10.503Z,25.50
2018-12-17T08:02:37.691Z,21.03
2018-12-17T08:05:04.998Z,22.73
2018-12-17T08:07:32.151Z,22.07
2018-12-17T08:09:59.323Z,24.60
2018-12-17T08:12:26.525Z,24.43
2018-12-17T08:14:53.693Z,19.30
2018-12-17T08:17:20.866Z,22.83
2018-12-17T08:19:48.168Z,24.67
2018-12-17T08:22:15.314Z,21.83
2018-12-17T08:24:42.488Z,21.97
2018-12-17T08:27:09.649Z,24.60
2018-12-17T08:29:36.849Z,21.93
2018-12-17T08:32:04.117Z,22.07
2018-12-17T08:34:31.296Z,20.30
2018-12-17T08:36:58.472Z,29.27
2018-12-17T08:39:25.639Z,21.50
2018-12-17T08:41:52.823Z,27.10
2018-12-17T08:44:19.980Z,16.90
2018-12-17T08:46:47.148Z,20.40
2018-12-17T08:49:14.303Z,18.90
2018-12-17T08:51:41.625Z,22.60
2018-12-17T08:54:08.791Z,20.63
2018-12-17T08:56:35.967Z,31.50
2018-12-17T08:59:03.120Z,18.90
2018-12-17T09:01:30.397Z,20.03
2018-12-17T09:03:57.563Z,23.97
2018-12-17T09:06:24.876Z,22.53
2018-12-17T09:08:52.121Z,17.40
2018-12-17T09:11:19.292Z,18.13
2018-12-17T09:13:46.555Z,15.27
2018-12-17T09:16:14.336Z,17.97
2018-12-17T09:18:41.576Z,17.20
2018-12-17T09:21:08.796Z,20.40
2018-12-17T09:23:36.065Z,13.30
2018-12-17T09:26:03.235Z,16.70
2018-12-17T09:28:30.924Z,14.13
2018-12-17T09:30:58.075Z,15.90
2018-12-17T09:33:25.240Z,16.03
2018-12-17T09:35:52.392Z,16.10
2018-12-17T09:38:19.665Z,20.80
2018-12-17T09:40:46.860Z,11.43
2018-12-17T09:43:14.033Z,10.93
2018-12-17T09:45:41.207Z,12.30
2018-12-17T09:48:08.476Z,10.40
2018-12-17T09:50:35.862Z,11.20
2018-12-17T09:53:03.084Z,16.03
2018-12-17T09:55:30.321Z,17.67
2018-12-17T09:57:57.596Z,17.30
2018-12-17T10:00:25.598Z,15.93
2018-12-17T10:02:53.781Z,12.17
2018-12-17T10:05:20.965Z,14.00
2018-12-17T10:07:48.284Z,15.43
2018-12-17T10:10:15.476Z,17.90
2018-12-17T10:12:42.658Z,11.00
2018-12-17T10:15:09.860Z,10.27
2018-12-17T10:17:37.037Z,11.47
2018-12-17T10:20:04.700Z,10.07
2018-12-17T10:22:31.889Z,11.00
2018-12-17T10:24:59.053Z,9.77
2018-12-17T10:27:26.355Z,10.43
2018-12-17T10:29:53.609Z,10.50
2018-12-17T10:32:20.772Z,8.87
2018-12-17T10:34:47.940Z,9.80
2018-12-17T10:37:15.127Z,10.77
2018-12-17T10:39:42.283Z,9.93
2018-12-17T10:42:09.461Z,9.50
2018-12-17T10:44:36.636Z,11.83
2018-12-17T10:47:03.841Z,8.80
2018-12-17T10:49:31.053Z,9.43
2018-12-17T10:51:58.235Z,10.03
2018-12-17T10:54:25.403Z,9.80
2018-12-17T10:56:52.639Z,10.87
2018-12-17T10:59:19.803Z,14.00
2018-12-17T11:02:51.995Z,12.53
2018-12-17T11:05:19.572Z,9.80
2018-12-17T11:07:46.739Z,9.17
2018-12-17T11:10:13.904Z,7.70
2018-12-17T11:12:41.052Z,7.00
2018-12-17T11:15:09.279Z,8.33
2018-12-17T11:17:36.459Z,8.17
2018-12-17T11:20:04.403Z,10.17
2018-12-17T11:22:31.552Z,7.23
2018-12-17T11:24:58.720Z,7.43
2018-12-17T11:27:25.886Z,12.77
2018-12-17T11:29:53.054Z,9.63
2018-12-17T11:32:20.200Z,11.20
2018-12-17T11:34:47.370Z,8.30
2018-12-17T11:37:14.520Z,7.33
2018-12-17T11:39:41.684Z,12.13
2018-12-17T11:42:08.843Z,7.07
2018-12-17T11:44:36.031Z,6.70
2018-12-17T11:47:03.367Z,8.77
2018-12-17T11:49:30.505Z,7.83
2018-12-17T11:51:57.665Z,4.93
2018-12-17T11:54:24.876Z,7.87
2018-12-17T11:57:56.365Z,5.43
2018-12-17T12:00:25.639Z,6.50
2018-12-17T12:02:58.945Z,6.97
2018-12-17T12:05:22.035Z,8.43
2018-12-17T12:07:49.191Z,7.37
2018-12-17T12:10:16.344Z,5.90
2018-12-17T12:12:43.529Z,6.33
2018-12-17T12:15:10.704Z,11.60
2018-12-17T12:17:37.869Z,8.93
2018-12-17T12:20:05.033Z,13.90
2018-12-17T12:22:32.781Z,6.43
2018-12-17T12:25:00.038Z,7.67
2018-12-17T12:27:27.309Z,14.17
2018-12-17T12:29:54.589Z,7.53
2018-12-17T12:32:21.739Z,9.30
2018-12-17T12:34:48.879Z,7.23
2018-12-17T12:37:16.068Z,9.37
2018-12-17T12:39:43.240Z,4.97
2018-12-17T12:42:10.407Z,8.53
2018-12-17T12:44:37.584Z,6.37
2018-12-17T12:47:04.839Z,7.93
2018-12-17T12:49:32.000Z,7.33
2018-12-17T12:51:59.192Z,8.60
2018-12-17T12:54:26.360Z,11.20
2018-12-17T12:56:53.511Z,7.20
2018-12-17T12:59:20.684Z,5.10
2018-12-17T13:01:47.861Z,4.00
2018-12-17T13:04:15.023Z,8.93
2018-12-17T13:06:42.188Z,6.37
2018-12-17T13:09:09.344Z,3.23
2018-12-17T13:11:36.587Z,2.40
2018-12-17T13:14:03.967Z,4.80
2018-12-17T13:16:31.119Z,4.73
2018-12-17T13:18:58.288Z,6.13
2018-12-17T13:21:25.432Z,2.80
2018-12-17T13:23:52.597Z,3.73
2018-12-17T13:26:19.747Z,2.30
2018-12-17T13:28:46.924Z,3.13
2018-12-17T13:31:14.821Z,3.50
2018-12-17T13:33:42.132Z,6.50
2018-12-17T13:36:09.287Z,2.77
2018-12-17T13:38:36.435Z,6.73
2018-12-17T13:41:04.343Z,2.70
2018-12-17T13:43:31.505Z,8.07
2018-12-17T13:45:58.763Z,11.60
2018-12-17T13:48:25.936Z,10.87
2018-12-17T13:50:53.283Z,5.10
2018-12-17T13:53:25.844Z,4.40
2018-12-17T13:55:52.992Z,5.83
2018-12-17T13:58:20.160Z,5.33
2018-12-17T14:00:47.331Z,7.60
2018-12-17T14:03:14.508Z,3.43
2018-12-17T14:05:41.675Z,3.87
2018-12-17T14:08:08.840Z,4.07
2018-12-17T14:11:08.978Z,2.70
2018-12-17T14:13:36.146Z,2.00
2018-12-17T14:16:08.869Z,5.43
2018-12-17T14:18:41.305Z,3.23
2018-12-17T14:21:13.986Z,6.30
2018-12-17T14:23:41.149Z,4.20
2018-12-17T14:26:08.312Z,2.20
2018-12-17T14:28:35.544Z,3.63
2018-12-17T14:31:02.739Z,3.63
2018-12-17T14:33:29.937Z,2.10
2018-12-17T14:36:02.551Z,2.20
2018-12-17T14:38:29.832Z,1.93
2018-12-17T14:40:56.980Z,2.47
2018-12-17T14:43:24.173Z,5.07
2018-12-17T14:45:51.327Z,2.37
2018-12-17T14:48:18.493Z,3.83
2018-12-17T14:50:45.672Z,2.87
2018-12-17T14:53:12.823Z,3.63
2018-12-17T14:55:40.004Z,3.77
2018-12-17T14:58:07.163Z,2.50
2018-12-17T15:00:34.336Z,3.30
2018-12-17T15:03:01.521Z,2.30
2018-12-17T15:05:28.747Z,2.20
2018-12-17T15:07:55.922Z,2.00
2018-12-17T15:10:23.081Z,6.27
2018-12-17T15:12:50.240Z,2.93
2018-12-17T15:15:17.413Z,2.33
2018-12-17T15:17:44.555Z,2.50
2018-12-17T15:20:11.957Z,2.77
2018-12-17T15:22:39.145Z,3.77
2018-12-17T15:25:07.031Z,2.20
2018-12-17T15:27:34.308Z,7.43
2018-12-17T15:30:01.494Z,4.47
2018-12-17T15:32:28.717Z,4.67
2018-12-17T15:34:55.871Z,8.43
2018-12-17T15:37:23.035Z,2.47
2018-12-17T15:39:50.196Z,2.70
2018-12-17T15:42:17.348Z,3.13
2018-12-17T15:44:44.625Z,3.60
2018-12-17T15:47:11.795Z,3.23
2018-12-17T15:49:38.962Z,3.00
2018-12-17T15:52:06.164Z,6.80
2018-12-17T15:54:33.333Z,3.47
2018-12-17T15:57:00.559Z,5.70
2018-12-17T15:59:27.921Z,4.10
2018-12-17T16:01:55.100Z,5.07
2018-12-17T16:04:22.248Z,5.30
2018-12-17T16:06:49.444Z,3.43
2018-12-17T16:09:16.608Z,7.00
2018-12-17T16:11:43.788Z,4.33
2018-12-17T16:14:11.035Z,3.07
2018-12-17T16:16:38.232Z,4.43
2018-12-17T16:19:05.397Z,5.93
2018-12-17T16:21:32.555Z,5.60
2018-12-17T16:23:59.727Z,5.53
2018-12-17T16:26:26.887Z,4.00
2018-12-17T16:28:54.049Z,10.53
2018-12-17T16:31:21.224Z,8.00
2018-12-17T16:33:48.396Z,5.70
2018-12-17T16:36:15.647Z,8.27
2018-12-17T16:38:42.829Z,5.67
2018-12-17T16:41:10.033Z,4.43
2018-12-17T16:43:37.208Z,3.20
2018-12-17T16:46:04.445Z,4.97
2018-12-17T16:48:31.702Z,4.57
2018-12-17T16:50:58.856Z,6.20
2018-12-17T16:53:26.032Z,4.43
2018-12-17T16:55:53.201Z,5.00
2018-12-17T16:58:20.354Z,3.47
2018-12-17T17:00:47.523Z,3.87
2018-12-17T17:03:14.697Z,3.17
2018-12-17T17:05:41.863Z,8.90
2018-12-17T17:08:09.032Z,4.73
2018-12-17T17:10:36.204Z,6.30
2018-12-17T17:13:03.490Z,5.50
2018-12-17T17:15:30.659Z,6.00
2018-12-17T17:17:57.831Z,4.33
2018-12-17T17:20:24.988Z,6.83
2018-12-17T17:22:52.152Z,5.70
2018-12-17T17:25:19.316Z,6.27
2018-12-17T17:27:48.145Z,3.13
2018-12-17T17:30:15.493Z,4.77
2018-12-17T17:32:42.631Z,6.30
2018-12-17T17:35:09.791Z,7.77
2018-12-17T17:37:36.956Z,10.07
2018-12-17T17:40:04.264Z,5.10
2018-12-17T17:42:31.433Z,7.50
2018-12-17T17:44:58.592Z,3.97
2018-12-17T17:47:25.759Z,6.17
2018-12-17T17:49:52.925Z,9.53
2018-12-17T17:52:20.093Z,7.90
2018-12-17T17:54:47.322Z,7.43
2018-12-17T17:57:14.494Z,7.40
2018-12-17T17:59:41.672Z,6.70
2018-12-17T18:02:08.838Z,4.50
2018-12-17T18:04:35.997Z,6.43
2018-12-17T18:07:03.140Z,6.30
2018-12-17T18:09:30.308Z,4.07
2018-12-17T18:11:57.616Z,4.43
2018-12-17T18:14:24.772Z,5.03
2018-12-17T18:16:51.953Z,6.23
2018-12-17T18:19:19.138Z,5.03
2018-12-17T18:21:46.434Z,5.13
2018-12-17T18:24:13.575Z,5.57
2018-12-17T18:26:40.864Z,5.30
2018-12-17T18:29:08.046Z,7.53
2018-12-17T18:31:35.490Z,5.97
2018-12-17T18:34:02.689Z,6.00
2018-12-17T18:36:29.856Z,3.60
2018-12-17T18:38:57.229Z,4.30
2018-12-17T18:41:24.493Z,5.57
2018-12-17T18:43:51.758Z,4.77
2018-12-17T18:46:19.025Z,6.20
2018-12-17T18:48:46.213Z,8.60
2018-12-17T18:51:13.367Z,5.70
2018-12-17T18:53:40.536Z,8.53
2018-12-17T18:56:07.705Z,7.40
2018-12-17T18:58:35.165Z,6.30
2018-12-17T19:01:02.521Z,6.77
2018-12-17T19:03:29.665Z,6.73
2018-12-17T19:05:56.824Z,4.80
2018-12-17T19:08:24.044Z,10.43
2018-12-17T19:10:51.320Z,10.17
2018-12-17T19:13:18.885Z,7.30
2018-12-17T19:15:46.179Z,5.20
2018-12-17T19:18:13.340Z,6.13
2018-12-17T19:20:40.496Z,6.47
2018-12-17T19:23:08.710Z,5.67
2018-12-17T19:25:35.916Z,5.07
2018-12-17T19:28:03.289Z,12.40
2018-12-17T19:30:30.548Z,3.73
2018-12-17T19:32:57.792Z,4.63
2018-12-17T19:35:24.943Z,5.93
2018-12-17T19:37:52.107Z,4.53
2018-12-17T19:40:19.264Z,4.97
2018-12-17T19:42:46.423Z,4.17
2018-12-17T19:45:13.583Z,5.43
2018-12-17T19:47:40.756Z,6.20
2018-12-17T19:50:08.088Z,9.13
2018-12-17T19:52:41.985Z,4.87
2018-12-17T19:55:09.160Z,10.00
2018-12-17T19:57:36.352Z,6.90
2018-12-17T20:00:03.939Z,5.73
2018-12-17T20:02:31.112Z,7.33
2018-12-17T20:04:58.304Z,4.93
2018-12-17T20:07:25.477Z,8.37
2018-12-17T20:09:52.623Z,4.63
2018-12-17T20:12:19.888Z,8.10
2018-12-17T20:14:47.041Z,6.80
2018-12-17T20:17:14.366Z,6.17
2018-12-17T20:19:41.509Z,8.10
2018-12-17T20:22:08.898Z,7.17
2018-12-17T20:24:36.140Z,9.60
2018-12-17T20:27:03.312Z,6.83
2018-12-17T20:29:30.475Z,8.47
2018-12-17T20:31:57.648Z,5.13
2018-12-17T20:34:24.812Z,6.10
2018-12-17T20:36:51.968Z,3.97
2018-12-17T20:39:19.240Z,6.43
2018-12-17T20:41:46.399Z,7.60
2018-12-17T20:44:13.582Z,7.93
2018-12-17T20:46:40.732Z,7.10
2018-12-17T20:49:07.936Z,4.63
2018-12-17T20:51:35.103Z,4.47
2018-12-17T20:54:02.258Z,6.33
2018-12-17T20:56:29.426Z,6.27
2018-12-17T20:58:56.624Z,5.00
2018-12-17T21:01:23.796Z,5.27
2018-12-17T21:03:50.964Z,4.10
2018-12-17T21:06:18.156Z,4.87
2018-12-17T21:08:45.315Z,6.97
2018-12-17T21:11:12.610Z,16.00
2018-12-17T21:13:39.839Z,7.00
2018-12-17T21:16:07.009Z,7.13
2018-12-17T21:18:34.255Z,10.30
2018-12-17T21:21:01.434Z,7.27
2018-12-17T21:23:28.876Z,10.03
2018-12-17T21:25:56.056Z,7.50
2018-12-17T21:28:23.217Z,5.87
2018-12-17T21:30:50.351Z,9.00
2018-12-17T21:33:17.525Z,9.70
2018-12-17T21:35:44.672Z,7.70
2018-12-17T21:38:11.836Z,8.37
2018-12-17T21:40:39.000Z,8.30
2018-12-17T21:43:06.188Z,10.60
2018-12-17T21:45:33.437Z,7.67
2018-12-17T21:48:00.601Z,9.37
2018-12-17T21:50:27.796Z,6.90
2018-12-17T21:52:54.947Z,7.13
2018-12-17T21:55:22.113Z,11.10
2018-12-17T21:57:49.364Z,7.20
2018-12-17T22:01:19.664Z,11.10
2018-12-17T22:03:46.828Z,5.20
2018-12-17T22:06:14.080Z,10.73
2018-12-17T22:08:41.248Z,8.17
2018-12-17T22:11:08.395Z,6.67
2018-12-17T22:13:35.676Z,4.80
2018-12-17T22:16:02.908Z,6.67
2018-12-17T22:18:30.063Z,6.63
2018-12-17T22:20:57.219Z,6.10
2018-12-17T22:23:24.384Z,4.83
2018-12-17T22:25:51.544Z,7.80
2018-12-17T22:28:18.716Z,10.33
2018-12-17T22:30:45.869Z,8.50
2018-12-17T22:33:13.032Z,13.40
2018-12-17T22:35:40.182Z,12.13
2018-12-17T22:38:07.352Z,11.77
2018-12-17T22:40:34.600Z,10.00
2018-12-17T22:43:01.767Z,10.63
2018-12-17T22:45:29.219Z,9.60
2018-12-17T22:47:56.517Z,7.90
2018-12-17T22:50:23.717Z,7.17
2018-12-17T22:52:50.865Z,7.67
2018-12-17T22:55:18.032Z,7.33
2018-12-17T22:57:45.266Z,7.93
2018-12-17T23:00:12.529Z,7.70
2018-12-17T23:02:39.684Z,7.07
2018-12-17T23:05:06.956Z,7.37
2018-12-17T23:07:34.133Z,7.67
2018-12-17T23:10:06.896Z,7.10
2018-12-17T23:12:39.799Z,16.50
2018-12-17T23:15:12.683Z,7.57
2018-12-17T23:17:40.390Z,8.20
2018-12-17T23:20:08.367Z,7.57
2018-12-17T23:22:36.429Z,5.77
2018-12-17T23:25:03.899Z,6.87
2018-12-17T23:27:31.788Z,7.17
2018-12-17T23:29:58.967Z,6.47
2018-12-17T23:32:28.133Z,8.60
2018-12-17T23:34:55.409Z,6.27
2018-12-17T23:37:22.612Z,7.40
2018-12-17T23:39:49.772Z,6.40
2018-12-17T23:42:16.933Z,7.50
2018-12-17T23:44:44.100Z,6.37
2018-12-17T23:47:11.268Z,9.03
2018-12-17T23:49:38.567Z,7.97
2018-12-17T23:52:05.716Z,5.80
2018-12-17T23:54:32.890Z,7.60
2018-12-17T23:57:00.169Z,4.80
2018-12-17T23:59:27.343Z,8.30
